OPLA Airport Information

Runway Information
Runway 18L Length 11024 ft width 151 ft
Elevation 712 ft Threshold 0 ft Heading 181
Runway 36R Length 11024 ft Width 151 ft
Elevation 707 ft Threshold 0 ft Heading 1
Runway 18R Length 9000 ft width 151 ft
Elevation 710 ft Threshold 0 ft Heading 181
Runway 36L Length 9000 ft Width 151 ft
Elevation 705 ft Threshold 0 ft Heading 1
Airport Frequencies
Type APP Name LAHORE APP Frequency 121.3 MHZ
Type ATIS Name ATIS Frequency 126.3 MHZ
Type GND Name LAHORE GND Frequency 118.4 MHZ
Type TWR Name LAHORE TWR Frequency 118.1 MHZ
Airport Navaids
Type VOR-DME Name Lahore Frequency 112700 KHZ
Type NDB Name Lahore Frequency 268 KHZ
Airport Weather Information & NOTAM
ADDS - METARS form results

(1117 UTC 24 July 2021)
Data provider http://aviationweather.gov/metar/data/
 
METAR text: OPLA 241055Z 14005KT 5000 FU SCT040 37/25 Q0997 TEMPO 31015G30KT 1500 TSRA FEW030CB RMK QFE970 RMK A29.47
Conditions at: OPLA (LAHORE (CIV/MIL), PK) observed 1055 UTC 24 July 2021
Temperature: 37.0°C (99°F)
Dewpoint: 25.0°C (77°F) [RH = 50%]
Pressure (altimeter): 29.44 inches Hg (997.0 mb)
Winds: from the SE (140 degrees) at 6 MPH (5 knots; 2.6 m/s)
Visibility: 3 miles ( 5 km)
Ceiling: at least 12,000 feet AGL
Clouds: scattered clouds at 4000 feet AGL
Weather: FU  (smoke)

METAR text: OPLA 241025Z 13005KT 5000 FU SCT040 37/25 Q0998 TEMPO 31015G30KT 1500 TSRA FEW030CB RMK QFE971 RMK A29.48
Conditions at: OPLA (LAHORE (CIV/MIL), PK) observed 1025 UTC 24 July 2021
Temperature: 37.0°C (99°F)
Dewpoint: 25.0°C (77°F) [RH = 50%]
Pressure (altimeter): 29.47 inches Hg (998.0 mb)
Winds: from the SE (130 degrees) at 6 MPH (5 knots; 2.6 m/s)
Visibility: 3 miles ( 5 km)
Ceiling: at least 12,000 feet AGL
Clouds: scattered clouds at 4000 feet AGL
Weather: FU  (smoke)

Forecast for: OPLA (LAHORE (CIV/MIL), PK)
Text: TAF OPLA 240945Z 2412/2421 13010KT 4000 FU SCT040 SCT100
Forecast period: 1200 to 2100 UTC 24 July 2021
Forecast type: FROM: standard forecast or significant change
Winds: from the SE (130 degrees) at 12 MPH (10 knots; 5.1 m/s)
Visibility: 2.49 miles (4.01 km)
Ceiling: at least 12,000 feet AGL
Clouds: scattered clouds at 4000 feet AGL
scattered clouds at 10000 feet AGL
Weather: FU  (smoke)